Time;durP1;ratioP1;P1;durP2;ratioP2;P2;SDS_P1;SDS_P2;PMS_P1;PMS_P2;Temp;Humidity;BMP_temperature;BMP_pressure;BME280_temperature;BME280_humidity;BME280_pressure;Samples;Min_cycle;Max_cycle;Signal;HPM_P1;HPM_P2
2021/04/12 00:01:44;;;;;;;2.93;0.70;;;4.60;99.90;;;;;;5011387;28;20682;-88
2021/04/12 00:04:18;;;;;;;2.37;0.93;;;4.60;99.90;;;;;;5010880;28;20234;-87
2021/04/12 00:06:49;;;;;;;2.07;0.90;;;4.50;99.90;;;;;;5022504;28;20201;-88
2021/04/12 00:09:21;;;;;;;5.60;0.90;;;4.50;99.90;;;;;;5030982;28;20234;-88
2021/04/12 00:11:53;;;;;;;7.30;0.97;;;4.50;99.90;;;;;;5030366;28;20213;-88
2021/04/12 00:14:25;;;;;;;3.20;0.53;;;4.60;99.90;;;;;;5015194;28;20203;-87
2021/04/12 00:16:58;;;;;;;1.60;0.60;;;4.70;99.90;;;;;;5011173;28;20207;-87
2021/04/12 00:19:34;;;;;;;4.53;0.77;;;4.70;99.90;;;;;;5010107;28;20218;-88
2021/04/12 00:22:07;;;;;;;6.93;0.90;;;4.80;99.90;;;;;;5014228;28;20191;-87
2021/04/12 00:24:39;;;;;;;3.80;0.80;;;4.70;99.90;;;;;;5029021;28;20234;-82
2021/04/12 00:27:11;;;;;;;3.33;0.90;;;4.70;99.90;;;;;;5027239;28;20198;-80
2021/04/12 00:29:46;;;;;;;1.50;0.60;;;4.60;99.90;;;;;;5027623;28;20186;-81
2021/04/12 00:32:18;;;;;;;4.57;0.97;;;4.50;99.90;;;;;;5026491;28;20298;-85
2021/04/12 00:34:52;;;;;;;2.27;0.50;;;4.50;99.90;;;;;;5026275;28;20207;-82
2021/04/12 00:37:24;;;;;;;1.47;0.70;;;4.40;99.90;;;;;;5027036;28;20279;-84
2021/04/12 00:39:55;;;;;;;2.57;0.70;;;4.30;99.90;;;;;;5015439;28;20273;-88
2021/04/12 00:42:49;;;;;;;2.90;0.80;;;4.20;99.90;;;;;;5007320;28;20207;-82
2021/04/12 00:45:47;;;;;;;1.10;0.50;;;4.20;99.90;;;;;;5005191;28;20223;-83
2021/04/12 00:48:32;;;;;;;3.07;0.77;;;4.10;99.90;;;;;;5008517;28;20295;-86
2021/04/12 00:51:14;;;;;;;1.80;0.83;;;4.00;99.90;;;;;;5008189;28;20195;-84
2021/04/12 00:53:51;;;;;;;1.17;0.90;;;3.90;99.90;;;;;;5008156;28;20203;-81
2021/04/12 00:56:24;;;;;;;2.37;0.70;;;3.90;99.90;;;;;;5008036;28;20222;-79
2021/04/12 00:58:59;;;;;;;1.90;0.50;;;3.80;99.90;;;;;;5007221;28;20285;-84
2021/04/12 01:01:45;;;;;;;3.13;0.50;;;3.80;99.90;;;;;;5007402;28;20199;-81
2021/04/12 01:04:41;;;;;;;3.57;0.70;;;3.70;99.90;;;;;;5008000;28;20233;-86
2021/04/12 01:07:35;;;;;;;3.13;0.90;;;3.70;99.90;;;;;;5011526;28;20183;-86
2021/04/12 01:10:29;;;;;;;2.47;0.70;;;3.70;99.90;;;;;;5008496;28;20223;-81
2021/04/12 01:13:48;;;;;;;3.37;1.00;;;3.80;99.90;;;;;;5023900;28;20206;-82
2021/04/12 01:16:32;;;;;;;5.27;0.90;;;3.80;99.90;;;;;;4966269;28;20519;-80
2021/04/12 01:19:16;;;;;;;5.97;1.67;;;3.80;99.90;;;;;;4965772;28;20217;-87
2021/04/12 01:22:26;;;;;;;2.63;0.80;;;3.90;99.90;;;;;;5000412;28;20207;-85
2021/04/12 01:25:20;;;;;;;5.03;1.10;;;4.00;99.90;;;;;;5006730;28;20227;-81
2021/04/12 01:28:34;;;;;;;1.87;0.80;;;4.10;99.90;;;;;;5026459;28;20241;-81
2021/04/12 01:31:38;;;;;;;2.93;0.80;;;4.10;99.90;;;;;;4994010;28;20214;-84
2021/04/12 01:34:37;;;;;;;0.87;0.40;;;4.20;99.90;;;;;;5004712;28;20538;-82
2021/04/12 01:37:24;;;;;;;3.53;0.50;;;4.10;99.90;;;;;;5008467;28;20218;-87
2021/04/12 01:40:10;;;;;;;4.10;0.80;;;4.10;99.90;;;;;;5008508;28;20211;-82
2021/04/12 01:42:46;;;;;;;2.53;0.90;;;4.10;99.90;;;;;;5006715;28;20553;-84
2021/04/12 01:45:30;;;;;;;2.93;0.50;;;4.30;99.90;;;;;;5007709;28;20256;-89
2021/04/12 01:48:10;;;;;;;0.77;0.60;;;4.30;99.90;;;;;;5008077;28;20203;-83
2021/04/12 01:50:58;;;;;;;1.67;0.50;;;4.30;99.90;;;;;;5017141;28;20253;-88
2021/04/12 01:53:40;;;;;;;5.10;0.60;;;4.30;99.90;;;;;;5030757;28;20198;-86
2021/04/12 01:56:22;;;;;;;2.07;0.70;;;4.30;99.90;;;;;;5030597;28;20190;-90
2021/04/12 01:58:59;;;;;;;0.53;0.53;;;4.40;99.90;;;;;;5010435;28;20206;-89
2021/04/12 02:01:53;;;;;;;2.57;0.83;;;4.40;99.90;;;;;;5009841;28;20207;-86
2021/04/12 02:04:38;;;;;;;2.83;0.80;;;4.40;99.90;;;;;;5006429;28;20215;-85
2021/04/12 02:07:29;;;;;;;3.07;0.90;;;4.30;99.90;;;;;;5016730;28;20195;-85
2021/04/12 02:10:18;;;;;;;2.53;0.63;;;4.30;99.90;;;;;;5026526;28;20234;-82
2021/04/12 02:12:58;;;;;;;2.60;0.93;;;4.30;99.90;;;;;;5026945;28;20195;-87
2021/04/12 02:15:38;;;;;;;4.57;1.00;;;4.40;99.90;;;;;;5023486;28;20253;-82
2021/04/12 02:18:26;;;;;;;2.23;0.70;;;4.50;99.90;;;;;;5006283;28;20502;-86
2021/04/12 02:20:58;;;;;;;1.87;0.67;;;4.50;99.90;;;;;;5009885;28;20200;-87
2021/04/12 02:23:48;;;;;;;1.20;0.70;;;4.50;99.90;;;;;;5009660;28;20285;-86
2021/04/12 02:26:36;;;;;;;2.13;0.90;;;4.50;99.90;;;;;;5006665;28;20207;-82
2021/04/12 02:29:23;;;;;;;1.50;0.80;;;4.50;99.90;;;;;;5010075;28;20215;-87
2021/04/12 02:32:00;;;;;;;3.90;0.80;;;4.60;99.90;;;;;;5012022;28;20317;-86
2021/04/12 02:34:37;;;;;;;2.13;0.80;;;4.60;99.90;;;;;;5012181;28;20278;-80
2021/04/12 02:37:25;;;;;;;2.73;0.90;;;4.70;99.90;;;;;;5008796;28;20195;-84
2021/04/12 02:40:08;;;;;;;5.13;1.00;;;4.70;99.90;;;;;;5007754;28;20187;-88
2021/04/12 02:42:43;;;;;;;1.53;0.70;;;4.60;99.90;;;;;;5012877;28;20229;-88
2021/04/12 02:45:24;;;;;;;3.07;0.80;;;4.50;99.90;;;;;;5013461;28;20202;-87
2021/04/12 02:48:07;;;;;;;1.97;0.73;;;4.40;99.90;;;;;;5011060;28;20188;-88
2021/04/12 02:50:51;;;;;;;5.10;0.80;;;4.40;99.90;;;;;;5009785;28;20516;-88
2021/04/12 02:53:35;;;;;;;1.93;0.67;;;4.30;99.90;;;;;;5013359;28;20218;-84
2021/04/12 02:56:15;;;;;;;2.60;0.80;;;4.30;99.90;;;;;;5011582;28;20250;-88
2021/04/12 02:58:58;;;;;;;5.23;0.97;;;4.40;99.90;;;;;;5011344;28;20191;-89
2021/04/12 03:02:10;;;;;;;3.80;1.00;;;4.30;99.90;;;;;;5009861;28;20195;-90
2021/04/12 03:04:51;;;;;;;4.23;1.00;;;4.30;99.90;;;;;;4990076;28;20784;-86
2021/04/12 03:07:58;;;;;;;3.07;0.90;;;4.30;99.90;;;;;;5012487;28;20199;-87
2021/04/12 03:10:56;;;;;;;6.53;1.37;;;4.40;99.90;;;;;;5020505;28;20218;-91
2021/04/12 03:13:57;;;;;;;3.90;1.10;;;4.40;99.90;;;;;;5012986;28;20199;-90
2021/04/12 03:16:50;;;;;;;3.40;1.20;;;4.60;99.90;;;;;;4995329;28;20242;-90
2021/04/12 03:19:50;;;;;;;4.83;1.03;;;4.50;99.90;;;;;;5009429;28;20214;-85
2021/04/12 03:22:35;;;;;;;5.33;1.17;;;4.50;99.90;;;;;;5016995;28;20214;-86
2021/04/12 03:25:30;;;;;;;2.93;0.90;;;4.40;99.90;;;;;;5031866;28;20242;-87
2021/04/12 03:28:10;;;;;;;3.80;0.80;;;4.30;99.90;;;;;;4994823;28;20518;-91
2021/04/12 03:30:58;;;;;;;3.37;1.07;;;4.30;99.90;;;;;;5009747;28;20521;-90
2021/04/12 03:33:34;;;;;;;3.80;0.97;;;4.20;99.90;;;;;;5009015;28;20203;-89
2021/04/12 03:36:13;;;;;;;6.57;1.40;;;4.20;99.90;;;;;;5009011;28;20199;-88
2021/04/12 03:38:45;;;;;;;4.43;1.10;;;4.10;99.90;;;;;;5008348;28;20748;-89
2021/04/12 03:41:43;;;;;;;2.70;1.00;;;4.10;99.90;;;;;;5010164;28;20195;-84
2021/04/12 03:44:48;;;;;;;6.10;1.37;;;4.20;99.90;;;;;;5010463;28;20219;-89
2021/04/12 03:47:45;;;;;;;6.67;0.90;;;4.20;99.90;;;;;;4947933;29;20243;-89
2021/04/12 03:50:28;;;;;;;4.30;1.20;;;4.30;99.90;;;;;;5025768;28;20202;-87
2021/04/12 03:53:17;;;;;;;4.70;1.10;;;4.20;99.90;;;;;;5028587;28;20272;-89
2021/04/12 03:56:00;;;;;;;3.83;0.83;;;4.20;99.90;;;;;;5008966;28;20199;-85
2021/04/12 03:58:52;;;;;;;7.23;1.60;;;4.30;99.90;;;;;;5007609;28;20881;-90
2021/04/12 04:01:49;;;;;;;4.23;1.40;;;4.50;99.90;;;;;;5013771;28;20198;-87
2021/04/12 04:04:47;;;;;;;4.63;0.80;;;4.60;99.90;;;;;;5032919;28;20226;-88
2021/04/12 04:07:40;;;;;;;4.20;0.60;;;4.70;99.90;;;;;;5024079;28;20288;-87
2021/04/12 04:10:37;;;;;;;3.87;1.00;;;4.70;99.90;;;;;;5026600;28;20233;-87
2021/04/12 04:13:41;;;;;;;3.73;0.70;;;4.80;99.90;;;;;;5024531;28;20210;-88
2021/04/12 04:16:20;;;;;;;4.17;1.17;;;4.70;99.90;;;;;;5024632;28;20199;-84
2021/04/12 04:18:57;;;;;;;3.73;0.90;;;4.70;99.90;;;;;;5022455;28;20206;-85
2021/04/12 04:22:20;;;;;;;2.80;0.90;;;4.60;99.90;;;;;;5005501;28;20207;-86
2021/04/12 04:25:16;;;;;;;2.93;0.90;;;4.50;99.90;;;;;;5015960;28;20241;-83
2021/04/12 04:28:28;;;;;;;5.23;1.10;;;4.60;99.90;;;;;;5019184;28;20210;-81
2021/04/12 04:31:15;;;;;;;4.33;0.70;;;4.60;99.90;;;;;;5004997;28;20573;-81
2021/04/12 04:34:17;;;;;;;5.80;1.53;;;4.60;99.90;;;;;;5005286;28;20211;-82
2021/04/12 04:37:01;;;;;;;3.90;1.17;;;4.60;99.90;;;;;;5003191;28;20206;-80
2021/04/12 04:39:46;;;;;;;2.33;1.20;;;4.60;99.90;;;;;;5004494;28;20195;-78
2021/04/12 04:42:37;;;;;;;3.50;0.80;;;4.50;99.90;;;;;;5006960;28;20195;-79
2021/04/12 04:45:47;;;;;;;1.37;0.77;;;4.40;99.90;;;;;;5006000;28;20214;-82
2021/04/12 04:48:49;;;;;;;5.13;1.17;;;4.40;99.90;;;;;;4950403;28;20871;-79
2021/04/12 04:51:57;;;;;;;3.20;0.87;;;4.50;99.90;;;;;;5004317;28;20214;-80
2021/04/12 04:54:43;;;;;;;3.47;0.90;;;4.40;99.90;;;;;;5005974;28;20219;-80
2021/04/12 04:57:32;;;;;;;4.97;0.83;;;4.40;99.90;;;;;;5006567;28;20678;-80
2021/04/12 05:00:22;;;;;;;3.67;1.10;;;4.50;99.90;;;;;;5006348;28;20234;-80
2021/04/12 05:03:15;;;;;;;4.63;1.03;;;4.50;99.90;;;;;;5005013;28;20215;-79
2021/04/12 05:06:00;;;;;;;3.13;0.80;;;4.60;99.90;;;;;;5006350;28;20336;-80
2021/04/12 05:09:11;;;;;;;4.80;0.90;;;4.70;99.90;;;;;;5005230;28;20208;-80
2021/04/12 05:12:28;;;;;;;1.63;0.80;;;4.60;99.90;;;;;;5005991;28;20579;-80
2021/04/12 05:15:24;;;;;;;2.77;0.80;;;4.60;99.90;;;;;;5005883;28;20563;-85
2021/04/12 05:18:08;;;;;;;4.73;0.93;;;4.60;99.90;;;;;;5005567;28;20214;-80
2021/04/12 05:21:11;;;;;;;2.47;0.60;;;4.60;99.90;;;;;;5021070;28;20225;-80
2021/04/12 05:23:55;;;;;;;2.70;0.60;;;4.60;99.90;;;;;;4958811;28;20237;-80
2021/04/12 05:26:57;;;;;;;4.17;1.10;;;4.50;99.90;;;;;;5027409;28;20567;-85
2021/04/12 05:30:14;;;;;;;2.43;0.73;;;4.60;99.90;;;;;;5007785;28;20210;-87
2021/04/12 05:32:49;;;;;;;2.87;1.13;;;4.50;99.90;;;;;;5006918;28;20210;-82
2021/04/12 05:35:48;;;;;;;3.37;0.70;;;4.50;99.90;;;;;;5007215;28;20225;-87
2021/04/12 05:38:47;;;;;;;4.97;1.00;;;4.70;99.90;;;;;;5001819;28;20214;-82
2021/04/12 05:41:28;;;;;;;2.17;0.90;;;4.70;99.90;;;;;;5005784;28;20506;-80
2021/04/12 05:44:12;;;;;;;2.93;0.80;;;4.80;99.90;;;;;;5003750;28;20254;-79
2021/04/12 05:47:01;;;;;;;2.20;0.63;;;4.90;99.90;;;;;;5014101;28;20217;-79
2021/04/12 05:49:49;;;;;;;3.40;0.67;;;5.00;99.90;;;;;;5023292;28;20206;-80
2021/04/12 05:52:36;;;;;;;1.67;0.70;;;5.20;99.90;;;;;;5012428;28;20222;-82
2021/04/12 05:55:35;;;;;;;5.60;1.37;;;5.60;99.90;;;;;;5003695;28;20630;-81
2021/04/12 05:58:23;;;;;;;5.63;0.83;;;5.80;99.90;;;;;;4980541;28;20617;-81
2021/04/12 06:01:09;;;;;;;5.53;1.00;;;5.90;99.90;;;;;;5026480;28;20272;-82
2021/04/12 06:03:45;;;;;;;4.47;1.10;;;5.80;99.90;;;;;;5029675;28;20210;-86
2021/04/12 06:06:38;;;;;;;4.50;1.33;;;5.70;99.90;;;;;;5030150;28;20210;-84
2021/04/12 06:09:45;;;;;;;5.00;1.30;;;5.60;99.90;;;;;;5027008;28;20203;-85
2021/04/12 06:12:57;;;;;;;8.83;1.97;;;5.40;99.90;;;;;;4972137;28;20207;-90
2021/04/12 06:16:08;;;;;;;5.27;1.43;;;5.30;99.90;;;;;;4995970;28;20280;-83
2021/04/12 06:19:15;;;;;;;2.30;0.93;;;5.20;99.90;;;;;;5007474;28;20257;-81
2021/04/12 06:22:41;;;;;;;5.93;1.77;;;5.10;99.90;;;;;;4950791;29;20181;-84
2021/04/12 06:25:39;;;;;;;4.33;1.30;;;5.10;99.90;;;;;;5010828;28;20242;-80
2021/04/12 06:28:50;;;;;;;4.53;1.40;;;5.10;99.90;;;;;;5012273;28;20678;-84
2021/04/12 06:31:56;;;;;;;7.00;1.30;;;5.10;99.90;;;;;;5014186;28;20195;-84
2021/04/12 06:35:07;;;;;;;2.47;0.93;;;5.10;99.90;;;;;;5011521;28;20200;-82
2021/04/12 06:37:50;;;;;;;4.70;1.07;;;5.20;99.90;;;;;;4945423;29;20271;-82
2021/04/12 06:40:52;;;;;;;4.87;0.90;;;5.20;99.90;;;;;;4949566;29;20201;-84
2021/04/12 06:44:17;;;;;;;7.83;2.67;;;5.30;99.90;;;;;;4999698;28;20265;-83
2021/04/12 06:47:17;;;;;;;2.10;0.70;;;5.40;99.90;;;;;;5023556;28;20207;-88
2021/04/12 06:50:24;;;;;;;4.30;1.47;;;5.40;99.90;;;;;;4980486;28;20203;-85
2021/04/12 06:53:44;;;;;;;6.20;0.90;;;5.50;99.90;;;;;;5011461;28;20195;-86
2021/04/12 06:56:45;;;;;;;0.93;0.87;;;5.70;99.90;;;;;;5012220;28;20556;-86
2021/04/12 06:59:44;;;;;;;8.93;1.30;;;5.70;99.90;;;;;;5011203;28;20207;-87
2021/04/12 07:03:08;;;;;;;1.97;0.70;;;5.90;99.90;;;;;;5011055;28;20261;-88
2021/04/12 07:06:19;;;;;;;2.23;0.73;;;6.00;99.90;;;;;;5010776;28;20560;-83
2021/04/12 07:09:34;;;;;;;9.17;2.50;;;6.20;99.90;;;;;;4928618;29;20213;-83
2021/04/12 07:12:43;;;;;;;3.77;1.03;;;6.20;99.90;;;;;;5030273;28;20211;-85
2021/04/12 07:15:42;;;;;;;5.57;0.90;;;6.20;99.90;;;;;;5025927;28;20262;-82
2021/04/12 07:18:51;;;;;;;3.47;1.03;;;6.20;99.90;;;;;;5028662;28;20195;-89
2021/04/12 07:21:40;;;;;;;5.40;1.23;;;6.20;99.90;;;;;;5026926;28;20232;-82
2021/04/12 07:24:46;;;;;;;9.67;1.30;;;6.20;99.90;;;;;;5024778;28;20237;-81
2021/04/12 07:27:54;;;;;;;4.43;1.10;;;6.30;99.90;;;;;;5026802;28;20203;-82
2021/04/12 07:30:53;;;;;;;3.70;0.83;;;6.30;99.90;;;;;;5012375;28;20210;-84
2021/04/12 07:34:04;;;;;;;3.70;1.07;;;6.40;99.90;;;;;;5028296;28;20222;-81
2021/04/12 07:36:51;;;;;;;2.53;0.97;;;6.60;99.90;;;;;;4975153;28;20654;-84
2021/04/12 07:39:43;;;;;;;4.37;0.83;;;6.80;99.90;;;;;;5027503;28;20198;-81
2021/04/12 07:42:56;;;;;;;4.03;1.00;;;6.90;99.90;;;;;;5028017;28;20236;-84
2021/04/12 07:46:11;;;;;;;3.13;1.00;;;6.90;99.90;;;;;;5007556;28;20211;-85
2021/04/12 07:49:26;;;;;;;5.93;0.80;;;6.70;99.90;;;;;;5008422;28;20211;-80
2021/04/12 07:52:32;;;;;;;3.83;1.10;;;6.70;99.90;;;;;;5024794;28;20217;-86
2021/04/12 07:55:27;;;;;;;4.00;0.90;;;6.60;99.90;;;;;;4997280;28;20211;-82
2021/04/12 07:58:23;;;;;;;4.63;0.93;;;6.80;99.90;;;;;;5022864;28;20213;-80
2021/04/12 08:01:41;;;;;;;4.73;1.43;;;7.10;99.90;;;;;;4963605;28;20223;-80
2021/04/12 08:04:44;;;;;;;5.70;1.10;;;7.50;99.90;;;;;;5006106;28;20207;-84
2021/04/12 08:07:48;;;;;;;4.30;1.10;;;7.70;99.90;;;;;;5010889;28;20537;-84
2021/04/12 08:10:57;;;;;;;4.20;0.80;;;7.90;99.90;;;;;;5025626;28;20230;-84
2021/04/12 08:14:01;;;;;;;5.60;1.23;;;7.80;99.90;;;;;;5015927;28;20188;-89
2021/04/12 08:17:01;;;;;;;5.43;1.20;;;7.60;99.90;;;;;;5015722;28;20210;-81
2021/04/12 08:19:41;;;;;;;4.10;1.27;;;7.50;99.90;;;;;;5012026;28;20211;-84
2021/04/12 08:22:37;;;;;;;5.43;1.43;;;7.40;99.90;;;;;;5018623;28;20218;-81
2021/04/12 08:25:21;;;;;;;6.83;1.20;;;7.40;99.90;;;;;;5019679;28;20656;-83
2021/04/12 08:28:37;;;;;;;2.60;0.87;;;7.50;99.90;;;;;;5015165;28;20218;-89
2021/04/12 08:31:39;;;;;;;7.37;1.10;;;7.50;99.90;;;;;;5019911;28;20230;-84
2021/04/12 08:34:39;;;;;;;5.90;1.20;;;7.60;99.90;;;;;;5014456;28;20213;-84
2021/04/12 08:37:39;;;;;;;1.83;0.70;;;7.70;99.90;;;;;;4997809;28;20206;-86
2021/04/12 08:40:31;;;;;;;2.43;0.73;;;7.60;99.90;;;;;;5018733;28;20214;-81
2021/04/12 08:43:37;;;;;;;5.37;0.90;;;7.60;99.90;;;;;;5021812;28;20191;-87
2021/04/12 08:46:42;;;;;;;2.50;0.80;;;7.70;99.90;;;;;;5018569;28;20203;-82
2021/04/12 08:49:54;;;;;;;5.13;1.10;;;8.10;99.90;;;;;;5012392;28;20638;-82
2021/04/12 08:53:00;;;;;;;2.47;0.90;;;8.20;99.90;;;;;;5015796;28;20213;-80
2021/04/12 08:55:53;;;;;;;4.83;1.10;;;8.20;99.90;;;;;;5012557;28;20514;-83
2021/04/12 08:59:00;;;;;;;2.17;0.90;;;7.80;99.90;;;;;;5000281;28;20258;-85
2021/04/12 09:01:51;;;;;;;3.90;1.10;;;7.60;99.90;;;;;;4986683;28;20211;-85
2021/04/12 09:04:52;;;;;;;4.00;1.40;;;7.10;99.90;;;;;;5007828;28;20273;-81
2021/04/12 09:07:49;;;;;;;6.30;1.90;;;6.40;99.90;;;;;;5007605;28;20348;-81
2021/04/12 09:10:58;;;;;;;3.83;1.40;;;5.80;99.90;;;;;;5003094;28;20234;-81
2021/04/12 09:13:56;;;;;;;4.30;1.40;;;5.40;99.90;;;;;;4964072;28;20203;-82
2021/04/12 09:16:52;;;;;;;3.97;1.33;;;5.10;99.90;;;;;;5002891;28;20195;-81
2021/04/12 09:19:44;;;;;;;2.07;1.50;;;4.90;99.90;;;;;;5001591;28;20250;-80
2021/04/12 09:22:55;;;;;;;2.37;1.53;;;4.90;99.90;;;;;;5001737;28;20211;-79
2021/04/12 09:25:49;;;;;;;3.53;1.40;;;4.90;99.90;;;;;;5001261;28;20239;-80
2021/04/12 09:28:49;;;;;;;7.43;1.73;;;4.90;99.90;;;;;;5000789;28;20207;-79
2021/04/12 09:31:51;;;;;;;12.70;3.57;;;5.00;99.90;;;;;;5001279;28;20191;-79
2021/04/12 09:34:57;;;;;;;3.23;1.70;;;5.40;99.90;;;;;;4971155;28;20207;-79
2021/04/12 09:38:14;;;;;;;4.53;1.70;;;5.70;99.90;;;;;;4982400;28;20599;-79
2021/04/12 09:41:40;;;;;;;4.03;1.60;;;6.30;99.90;;;;;;5001064;28;20269;-80
2021/04/12 09:44:37;;;;;;;2.33;1.57;;;6.60;99.90;;;;;;5001466;28;20223;-78
2021/04/12 09:47:54;;;;;;;3.90;1.47;;;6.90;99.90;;;;;;5001624;28;20199;-79
2021/04/12 09:51:00;;;;;;;6.07;1.93;;;7.30;99.90;;;;;;5001148;28;20214;-77
2021/04/12 09:53:54;;;;;;;2.43;1.40;;;7.60;99.90;;;;;;5002104;28;20249;-77
2021/04/12 09:57:02;;;;;;;6.20;1.70;;;7.70;99.90;;;;;;5000952;28;20218;-80
2021/04/12 09:59:47;;;;;;;6.13;1.90;;;8.00;99.90;;;;;;5001606;28;20210;-79
2021/04/12 10:02:46;;;;;;;4.57;1.60;;;8.30;99.90;;;;;;5000948;28;20290;-78
2021/04/12 10:05:34;;;;;;;4.13;1.53;;;8.30;99.90;;;;;;5002510;28;20219;-80
2021/04/12 10:08:19;;;;;;;2.23;1.50;;;8.40;99.90;;;;;;5012753;28;20213;-76
2021/04/12 10:10:58;;;;;;;4.30;1.90;;;8.30;99.90;;;;;;5021997;28;20218;-81
2021/04/12 10:13:33;;;;;;;7.07;1.67;;;8.40;99.90;;;;;;5003489;28;20203;-83
2021/04/12 10:16:26;;;;;;;6.63;1.80;;;8.50;99.90;;;;;;5002173;28;20297;-78
2021/04/12 10:19:05;;;;;;;3.73;1.93;;;8.50;99.90;;;;;;4989545;28;20203;-80
2021/04/12 10:21:40;;;;;;;5.30;1.80;;;8.60;99.90;;;;;;5002734;28;20218;-80
2021/04/12 10:24:16;;;;;;;1.30;0.80;;;8.90;99.90;;;;;;5003157;28;20244;-81
2021/04/12 10:26:46;;;;;;;4.80;0.90;;;9.10;99.90;;;;;;4987166;28;20206;-80
2021/04/12 10:29:17;;;;;;;3.43;1.10;;;9.30;99.90;;;;;;5003465;28;20195;-80
2021/04/12 10:31:53;;;;;;;6.40;1.20;;;9.50;99.90;;;;;;5002338;28;20215;-82
2021/04/12 10:34:28;;;;;;;2.20;0.80;;;9.50;99.90;;;;;;5001596;28;20237;-82
2021/04/12 10:37:08;;;;;;;2.40;0.90;;;9.40;99.90;;;;;;5001782;28;20206;-80
2021/04/12 10:39:40;;;;;;;1.20;0.83;;;9.50;99.90;;;;;;5001674;28;20196;-78
2021/04/12 10:42:17;;;;;;;3.10;1.00;;;9.60;99.90;;;;;;5001400;28;20199;-79
2021/04/12 10:44:50;;;;;;;3.23;1.00;;;9.50;99.90;;;;;;5021985;28;20510;-82
2021/04/12 10:47:23;;;;;;;1.70;0.80;;;9.50;99.90;;;;;;5021889;28;20202;-79
2021/04/12 10:49:59;;;;;;;2.00;1.03;;;9.60;99.90;;;;;;5004320;28;20225;-77
2021/04/12 10:52:33;;;;;;;2.53;0.87;;;9.50;99.90;;;;;;5005611;28;20251;-81
2021/04/12 10:55:15;;;;;;;3.17;1.60;;;9.30;99.90;;;;;;5006980;28;20221;-81
2021/04/12 10:57:48;;;;;;;3.10;0.90;;;9.20;99.90;;;;;;5024992;28;20223;-78
2021/04/12 11:00:25;;;;;;;2.57;0.97;;;9.30;99.90;;;;;;5026132;28;20195;-80
2021/04/12 11:03:15;;;;;;;2.33;1.27;;;9.50;99.90;;;;;;5008211;28;20230;-79
2021/04/12 11:05:45;;;;;;;2.83;1.30;;;9.70;99.90;;;;;;5017464;28;20211;-81
2021/04/12 11:08:26;;;;;;;3.20;1.27;;;9.90;99.90;;;;;;5027206;28;20238;-80
2021/04/12 11:11:10;;;;;;;4.23;1.13;;;9.90;99.90;;;;;;5016642;28;20314;-78
2021/04/12 11:13:42;;;;;;;3.90;1.60;;;10.00;99.90;;;;;;5004813;28;20323;-80
2021/04/12 11:16:13;;;;;;;2.43;1.10;;;10.20;99.90;;;;;;5005878;28;20203;-81
2021/04/12 11:19:17;;;;;;;3.53;1.20;;;10.20;99.90;;;;;;5004806;28;20254;-80
2021/04/12 11:21:53;;;;;;;2.77;1.43;;;10.00;99.90;;;;;;4990421;28;20210;-79
2021/04/12 11:24:25;;;;;;;3.13;1.30;;;9.80;99.90;;;;;;5003707;28;20635;-78
2021/04/12 11:27:41;;;;;;;4.17;1.20;;;9.70;99.90;;;;;;5003911;28;20849;-80
2021/04/12 11:30:19;;;;;;;5.40;2.20;;;9.50;99.90;;;;;;5005083;28;20231;-79
2021/04/12 11:33:04;;;;;;;7.37;1.97;;;9.50;99.90;;;;;;5004833;28;20498;-80
2021/04/12 11:35:40;;;;;;;5.93;1.70;;;9.70;99.90;;;;;;5004279;28;20206;-78
2021/04/12 11:38:11;;;;;;;5.10;1.87;;;10.00;99.90;;;;;;5004768;28;20598;-83
2021/04/12 11:40:46;;;;;;;6.73;1.70;;;10.20;99.90;;;;;;5005192;28;20214;-79
2021/04/12 11:43:15;;;;;;;4.83;1.60;;;10.40;99.90;;;;;;5015724;28;20223;-79
2021/04/12 11:45:48;;;;;;;4.10;2.00;;;10.60;99.90;;;;;;5024966;28;20592;-79
2021/04/12 11:48:19;;;;;;;2.37;1.40;;;10.80;99.90;;;;;;5023575;28;20190;-81
2021/04/12 11:50:57;;;;;;;3.67;1.47;;;10.80;99.90;;;;;;5025063;28;20908;-80
2021/04/12 11:53:39;;;;;;;5.83;1.80;;;10.70;99.90;;;;;;5021262;28;20986;-80
2021/04/12 11:56:13;;;;;;;3.40;1.70;;;10.90;99.90;;;;;;5003018;28;20270;-79
2021/04/12 11:58:44;;;;;;;4.70;1.63;;;11.00;99.90;;;;;;5004898;28;20190;-78
2021/04/12 12:01:19;;;;;;;8.17;2.53;;;10.80;99.90;;;;;;5004011;28;20204;-79
2021/04/12 12:04:14;;;;;;;3.37;1.73;;;10.80;99.90;;;;;;5004577;28;20905;-80
2021/04/12 12:06:50;;;;;;;4.83;1.77;;;10.60;99.90;;;;;;5005360;28;20200;-80
2021/04/12 12:09:35;;;;;;;3.17;1.17;;;10.70;99.90;;;;;;5003410;28;20913;-78
2021/04/12 12:12:09;;;;;;;3.60;1.67;;;10.90;99.90;;;;;;5004241;28;20626;-80
2021/04/12 12:14:39;;;;;;;4.53;1.73;;;10.80;99.90;;;;;;5003295;28;20199;-80
2021/04/12 12:17:14;;;;;;;7.17;2.27;;;10.60;99.90;;;;;;5002878;28;20207;-78
2021/04/12 12:19:46;;;;;;;4.40;1.50;;;10.40;99.90;;;;;;4984847;28;20226;-78
2021/04/12 12:22:22;;;;;;;3.63;1.60;;;10.40;99.90;;;;;;5002839;28;20207;-78
2021/04/12 12:24:59;;;;;;;5.17;1.70;;;10.40;99.90;;;;;;5003144;28;20573;-81
2021/04/12 12:27:29;;;;;;;5.73;2.20;;;10.60;99.90;;;;;;5003957;28;20230;-79
2021/04/12 12:30:06;;;;;;;3.17;1.87;;;10.80;99.90;;;;;;5003604;28;20218;-80
2021/04/12 12:32:50;;;;;;;3.83;1.40;;;10.70;99.90;;;;;;5003641;28;20286;-79
2021/04/12 12:35:25;;;;;;;6.83;0.90;;;10.40;99.90;;;;;;5004153;28;20195;-79
2021/04/12 12:38:12;;;;;;;6.17;1.37;;;9.70;99.90;;;;;;5003701;28;20606;-79
2021/04/12 12:40:45;;;;;;;3.63;1.10;;;9.30;99.90;;;;;;5004157;28;20793;-79
2021/04/12 12:43:17;;;;;;;4.30;1.30;;;9.00;99.90;;;;;;5003602;28;20219;-79
2021/04/12 12:45:44;;;;;;;1.97;0.83;;;8.90;99.90;;;;;;5002881;28;20207;-79
2021/04/12 12:48:17;;;;;;;1.83;0.80;;;8.40;99.90;;;;;;5003010;28;20871;-79
2021/04/12 12:50:48;;;;;;;2.30;0.80;;;8.10;99.90;;;;;;5002727;28;20200;-77
2021/04/12 12:53:21;;;;;;;2.83;0.90;;;7.90;99.90;;;;;;5002762;28;20221;-79
2021/04/12 12:55:50;;;;;;;1.13;0.60;;;7.80;99.90;;;;;;5002146;28;20215;-77
2021/04/12 12:58:20;;;;;;;2.67;0.97;;;7.50;99.90;;;;;;5003064;28;20202;-79
2021/04/12 13:00:50;;;;;;;1.47;0.90;;;7.30;99.90;;;;;;5002280;28;20653;-77
2021/04/12 13:03:27;;;;;;;6.10;1.20;;;7.20;99.90;;;;;;5001307;28;20265;-79
2021/04/12 13:05:55;;;;;;;1.83;1.10;;;7.10;99.90;;;;;;5000837;28;20299;-78
2021/04/12 13:08:25;;;;;;;1.93;1.00;;;7.00;99.90;;;;;;5015878;28;20222;-77
2021/04/12 13:10:54;;;;;;;2.87;1.10;;;6.80;99.90;;;;;;5022580;28;20222;-78
2021/04/12 13:13:27;;;;;;;3.60;1.23;;;6.60;99.90;;;;;;5005694;28;20732;-78
2021/04/12 13:15:56;;;;;;;5.03;1.40;;;6.50;99.90;;;;;;5002694;28;20233;-79
2021/04/12 13:18:33;;;;;;;4.37;1.93;;;6.30;99.90;;;;;;5002166;28;20839;-78
2021/04/12 13:21:10;;;;;;;1.10;1.00;;;6.10;99.90;;;;;;5001368;28;20214;-76
2021/04/12 13:24:06;;;;;;;3.13;1.00;;;6.00;99.90;;;;;;5001854;28;20227;-77
2021/04/12 13:26:36;;;;;;;2.80;1.27;;;6.00;99.90;;;;;;5001933;28;20281;-78
2021/04/12 13:29:09;;;;;;;4.87;2.30;;;6.00;99.90;;;;;;5001597;28;20214;-78
2021/04/12 13:31:42;;;;;;;2.07;1.27;;;6.00;99.90;;;;;;5019940;28;20237;-78
2021/04/12 13:34:15;;;;;;;3.27;1.60;;;5.90;99.90;;;;;;5021247;28;20575;-78
2021/04/12 13:36:45;;;;;;;3.73;1.73;;;5.80;99.90;;;;;;5020916;28;20209;-76
2021/04/12 13:39:15;;;;;;;2.87;1.67;;;5.80;99.90;;;;;;5021242;28;20202;-76
2021/04/12 13:41:46;;;;;;;4.33;2.40;;;5.80;99.90;;;;;;5018046;28;20202;-79
2021/04/12 13:44:15;;;;;;;3.43;2.23;;;5.70;99.90;;;;;;5002150;28;20231;-78
2021/04/12 13:46:54;;;;;;;6.27;2.30;;;5.70;99.90;;;;;;5011673;28;20206;-76
2021/04/12 13:49:27;;;;;;;4.17;1.83;;;5.70;99.90;;;;;;5022094;28;20198;-75
2021/04/12 13:52:02;;;;;;;3.13;2.00;;;5.80;99.90;;;;;;5018887;28;20202;-80
2021/04/12 13:54:38;;;;;;;4.50;2.10;;;5.90;99.90;;;;;;5001605;28;20206;-79
2021/04/12 13:57:09;;;;;;;8.87;3.27;;;6.10;99.90;;;;;;5001269;28;20648;-79
2021/04/12 13:59:39;;;;;;;5.67;3.90;;;6.20;99.90;;;;;;5001808;28;20203;-80
2021/04/12 14:02:23;;;;;;;9.50;5.33;;;6.50;99.90;;;;;;5001131;28;20214;-79
2021/04/12 14:04:54;;;;;;;9.60;5.50;;;6.70;99.90;;;;;;5001805;28;20675;-79
2021/04/12 14:07:40;;;;;;;9.93;4.13;;;7.10;99.90;;;;;;5001807;28;20670;-83
2021/04/12 14:10:13;;;;;;;8.43;3.30;;;7.40;99.90;;;;;;5005807;28;20574;-80
2021/04/12 14:12:51;;;;;;;4.77;2.57;;;7.70;99.90;;;;;;5022111;28;20268;-79
2021/04/12 14:15:24;;;;;;;8.13;2.67;;;7.80;99.90;;;;;;5021370;28;20241;-80
2021/04/12 14:18:00;;;;;;;3.67;2.20;;;7.90;99.90;;;;;;5021380;28;20218;-80
2021/04/12 14:20:39;;;;;;;5.27;2.00;;;8.00;99.90;;;;;;5022306;28;20209;-83
2021/04/12 14:23:16;;;;;;;7.47;2.50;;;8.00;99.90;;;;;;5023416;28;20213;-79
2021/04/12 14:25:45;;;;;;;3.60;2.10;;;8.00;99.90;;;;;;5025428;28;21002;-82
2021/04/12 14:28:16;;;;;;;6.93;2.87;;;8.10;99.90;;;;;;5028044;28;20206;-82
2021/04/12 14:30:46;;;;;;;7.27;3.10;;;8.20;99.90;;;;;;5027432;28;20253;-78
2021/04/12 14:33:18;;;;;;;6.40;3.20;;;8.30;99.90;;;;;;5016660;28;20219;-78
2021/04/12 14:35:47;;;;;;;3.60;2.73;;;8.20;99.90;;;;;;5006956;28;20195;-78
2021/04/12 14:38:16;;;;;;;5.97;2.73;;;8.30;99.90;;;;;;5005389;28;20254;-82
2021/04/12 14:40:53;;;;;;;5.17;2.80;;;8.30;99.90;;;;;;5016604;28;20234;-83
2021/04/12 14:43:25;;;;;;;6.57;1.60;;;8.40;99.90;;;;;;5009670;28;20198;-83